Terminal Aerodrome Forecast
Issued by NWS Greer, SC

Home | Current Version | Previous Version | Text Only | Print | Product List | Glossary On
Versions: 1 2 3 4 5 6 7 8 9 10 11 12 13 14 15 16 17 18 19 20 21 22 23 24 25 26 27 28 29 30 31 32 33 34 35 36 37 38 39 40 41 42 43 44 45 46
000
FTUS42 KGSP 101735
TAFGSP
TAF
KGSP 101735Z 1018/1118 27007KT 5SM BR SCT008 OVC015
      TEMPO 1018/1021 2SM -SHRA BR BKN008 OVC015
     FM102100 34009KT 6SM -SHRA BR OVC018
     FM110300 36009KT 6SM -SHRA BR OVC026
     FM110800 35007KT P6SM OVC040
     FM111400 36011KT P6SM SCT250=

USA.gov is the U.S. government's official web portal to all federal, state and local government web resources and services.